Time;durP1;ratioP1;P1;durP2;ratioP2;P2;SDS_P1;SDS_P2;PMS_P1;PMS_P2;Temp;Humidity;BMP_temperature;BMP_pressure;BME280_temperature;BME280_humidity;BME280_pressure;Samples;Min_cycle;Max_cycle;Signal;HPM_P1;HPM_P2
2023/01/30 00:01:03;;;;;;;66.45;42.85;;;;;;;2.48;100.00;100970.91;10107471;28;20055;-67
2023/01/30 00:06:00;;;;;;;50.65;33.33;;;;;;;2.53;100.00;100962.88;10109258;28;20086;-67
2023/01/30 00:11:01;;;;;;;62.88;42.65;;;;;;;2.57;100.00;100920.78;10095876;28;20402;-66
2023/01/30 00:15:58;;;;;;;61.05;40.17;;;;;;;2.57;100.00;100931.59;10106545;28;20051;-66
2023/01/30 00:20:59;;;;;;;64.85;42.53;;;;;;;2.56;100.00;100951.56;10104966;28;20114;-66
2023/01/30 00:25:56;;;;;;;61.65;42.03;;;;;;;2.60;100.00;100941.88;10106224;28;20501;-67
2023/01/30 00:30:54;;;;;;;62.20;42.83;;;;;;;2.62;100.00;100893.84;10100861;28;20082;-67
2023/01/30 00:35:53;;;;;;;67.10;44.70;;;;;;;2.66;100.00;100880.63;10102917;28;20057;-67
2023/01/30 00:40:49;;;;;;;65.68;45.60;;;;;;;2.74;100.00;100872.84;10104617;28;20104;-67
2023/01/30 00:51:02;;;;;;;59.10;46.10;;;;;;;2.84;100.00;100849.69;10095913;28;20042;-68
2023/01/30 00:55:59;;;;;;;60.53;40.97;;;;;;;2.92;100.00;100830.25;10104294;28;20456;-68
2023/01/30 01:00:55;;;;;;;63.83;45.97;;;;;;;2.94;100.00;100809.19;10102923;28;20062;-68
2023/01/30 01:05:52;;;;;;;64.63;43.47;;;;;;;3.01;100.00;100800.84;10095934;28;20074;-68
2023/01/30 01:10:49;;;;;;;59.53;45.50;;;;;;;3.06;100.00;100788.16;10087458;28;20055;-68
2023/01/30 01:15:45;;;;;;;60.60;44.80;;;;;;;3.08;100.00;100796.81;10100672;28;20144;-67
2023/01/30 01:20:41;;;;;;;55.95;41.65;;;;;;;3.16;100.00;100782.00;10090594;28;20058;-68
2023/01/30 01:25:38;;;;;;;60.13;41.00;;;;;;;3.12;100.00;100765.50;10097264;28;20051;-67
2023/01/30 01:30:34;;;;;;;61.33;38.92;;;;;;;3.16;100.00;100755.78;10090753;28;20137;-67
2023/01/30 01:35:31;;;;;;;52.53;36.13;;;;;;;3.22;100.00;100753.91;10106079;28;20452;-67
2023/01/30 01:45:44;;;;;;;60.88;39.22;;;;;;;3.25;100.00;100730.94;10095983;28;20043;-67
2023/01/30 01:51:01;;;;;;;45.20;34.10;;;;;;;3.29;100.00;100718.50;10091292;28;20550;-67
2023/01/30 01:56:00;;;;;;;61.15;40.22;;;;;;;3.26;100.00;100705.53;10088560;28;20039;-67
2023/01/30 02:00:58;;;;;;;52.85;35.88;;;;;;;3.29;100.00;100705.00;10094463;28;20047;-67
2023/01/30 02:05:59;;;;;;;53.15;36.67;;;;;;;3.30;100.00;100706.63;11133496;23;20137;-67
2023/01/30 02:11:24;;;;;;;53.10;36.17;;;;;;;3.37;100.00;100704.47;10129784;28;20145;-66
2023/01/30 02:16:21;;;;;;;52.50;39.15;;;;;;;3.39;100.00;100694.22;10125032;28;20420;-66
2023/01/30 02:21:41;;;;;;;50.70;35.90;;;;;;;3.41;100.00;100685.81;10104708;28;20061;-66
2023/01/30 02:27:02;;;;;;;54.70;37.47;;;;;;;3.40;100.00;100685.00;10108291;28;20043;-66
2023/01/30 02:32:32;;;;;;;44.63;33.08;;;;;;;3.43;100.00;100662.81;10107723;28;20046;-66
2023/01/30 02:37:56;;;;;;;55.15;35.33;;;;;;;3.46;100.00;100659.59;10100634;28;20146;-66
2023/01/30 02:43:19;;;;;;;55.35;36.75;;;;;;;3.52;100.00;100672.00;10104453;28;20054;-66
2023/01/30 02:48:33;;;;;;;49.30;34.10;;;;;;;3.59;100.00;100650.91;10095739;28;20567;-66
2023/01/30 02:53:33;;;;;;;50.72;33.42;;;;;;;3.67;100.00;100646.06;10106880;28;20119;-66
2023/01/30 02:58:37;;;;;;;49.78;33.80;;;;;;;3.68;100.00;100631.44;10105462;28;20070;-66
2023/01/30 03:03:52;;;;;;;40.10;29.98;;;;;;;3.74;100.00;100617.66;10093572;28;20435;-66
2023/01/30 03:09:05;;;;;;;46.10;32.97;;;;;;;3.78;100.00;100621.44;10101872;28;20062;-66
2023/01/30 03:14:10;;;;;;;41.97;30.70;;;;;;;3.86;100.00;100606.53;10107722;28;20070;-66
2023/01/30 03:19:12;;;;;;;36.38;28.48;;;;;;;3.89;100.00;100600.56;10109691;28;20644;-65
2023/01/30 03:24:08;;;;;;;46.00;29.30;;;;;;;3.94;100.00;100592.41;10106786;28;20134;-65
2023/01/30 03:29:05;;;;;;;36.75;28.80;;;;;;;3.96;100.00;100574.00;10112178;28;20042;-66
2023/01/30 03:34:02;;;;;;;31.88;27.25;;;;;;;4.03;100.00;100572.91;10113690;28;20066;-66
2023/01/30 03:38:58;;;;;;;34.03;27.55;;;;;;;4.05;100.00;100576.16;10105574;28;20050;-66
2023/01/30 03:43:54;;;;;;;37.10;29.17;;;;;;;4.05;100.00;100576.16;10110695;28;20053;-66
2023/01/30 03:48:51;;;;;;;35.40;28.52;;;;;;;4.11;100.00;100542.59;10109999;28;20067;-66
2023/01/30 03:53:47;;;;;;;33.03;28.10;;;;;;;4.14;100.00;100544.72;10113956;28;20133;-66
2023/01/30 03:58:44;;;;;;;32.60;26.40;;;;;;;4.18;100.00;100553.91;10109057;28;20051;-66
2023/01/30 04:03:40;;;;;;;30.60;25.60;;;;;;;4.20;100.00;100557.13;10105020;28;20057;-66
2023/01/30 04:08:37;;;;;;;32.53;24.95;;;;;;;4.26;100.00;100534.38;10113052;28;20047;-66
2023/01/30 04:13:33;;;;;;;30.55;25.58;;;;;;;4.25;100.00;100511.09;10113856;28;20039;-66
2023/01/30 04:18:30;;;;;;;26.98;24.08;;;;;;;4.33;100.00;100545.69;10114133;28;20070;-66
2023/01/30 04:23:26;;;;;;;29.55;25.23;;;;;;;4.38;100.00;100542.94;10109900;28;20464;-67
2023/01/30 04:28:22;;;;;;;22.27;19.92;;;;;;;4.49;100.00;100580.78;10098844;28;20042;-66
2023/01/30 04:33:19;;;;;;;21.73;19.77;;;;;;;4.43;100.00;100564.59;10101763;28;20130;-67
2023/01/30 04:38:15;;;;;;;22.40;20.50;;;;;;;4.40;100.00;100546.19;10096880;28;20093;-67
2023/01/30 04:43:12;;;;;;;23.17;21.52;;;;;;;4.34;100.00;100563.56;10102155;28;20532;-67
2023/01/30 04:48:09;;;;;;;23.27;21.27;;;;;;;4.32;100.00;100562.22;10108059;28;20089;-66
2023/01/30 04:53:05;;;;;;;23.75;21.63;;;;;;;4.31;100.00;100553.28;10113350;28;20456;-66
2023/01/30 04:58:02;;;;;;;25.02;22.80;;;;;;;4.35;100.00;100537.28;10105900;28;20057;-67
2023/01/30 05:02:58;;;;;;;24.75;22.70;;;;;;;4.37;100.00;100538.63;10105438;28;20125;-67
2023/01/30 05:07:54;;;;;;;24.67;22.55;;;;;;;4.44;100.00;100546.44;10099343;28;20083;-66
2023/01/30 05:12:51;;;;;;;24.48;22.30;;;;;;;4.45;100.00;100552.66;10104581;28;20105;-66
2023/01/30 05:17:47;;;;;;;26.33;24.23;;;;;;;4.40;100.00;100543.47;10108851;28;20057;-66
2023/01/30 05:22:44;;;;;;;27.92;25.35;;;;;;;4.37;100.00;100541.34;10109767;28;20085;-66
2023/01/30 05:27:40;;;;;;;26.17;24.38;;;;;;;4.33;100.00;100540.28;10109045;28;20389;-66
2023/01/30 05:32:37;;;;;;;27.40;25.20;;;;;;;4.31;100.00;100542.44;10106737;28;20547;-66
2023/01/30 05:37:33;;;;;;;27.00;24.20;;;;;;;4.31;100.00;100526.19;10110549;28;20121;-66
2023/01/30 05:42:30;;;;;;;28.42;25.83;;;;;;;4.25;100.00;100532.75;10095290;28;20042;-66
2023/01/30 05:47:26;;;;;;;29.00;26.60;;;;;;;4.23;100.00;100534.94;10104692;28;20050;-66
2023/01/30 05:52:23;;;;;;;33.67;30.10;;;;;;;4.17;100.00;100531.44;10101826;28;20573;-66
2023/01/30 05:57:19;;;;;;;35.55;31.83;;;;;;;4.10;100.00;100530.13;10099620;28;20053;-66
2023/01/30 06:02:15;;;;;;;28.23;24.92;;;;;;;4.06;100.00;100519.06;10110570;28;20512;-66
2023/01/30 06:07:13;;;;;;;32.53;29.48;;;;;;;3.89;100.00;100515.91;10104546;28;20385;-68
2023/01/30 06:12:09;;;;;;;32.90;29.73;;;;;;;3.90;100.00;100512.94;10106075;28;20042;-66
2023/01/30 06:17:06;;;;;;;32.42;29.08;;;;;;;3.90;100.00;100510.22;10103259;28;20501;-66
2023/01/30 06:22:02;;;;;;;32.55;29.73;;;;;;;3.75;100.00;100507.56;10102436;28;20039;-66
2023/01/30 06:26:59;;;;;;;31.63;28.25;;;;;;;3.69;100.00;100533.00;10102300;28;20081;-66
2023/01/30 06:31:55;;;;;;;30.60;27.88;;;;;;;3.58;100.00;100530.34;10100703;28;20051;-66
2023/01/30 06:36:51;;;;;;;30.48;27.73;;;;;;;3.47;100.00;100528.75;10107663;28;20073;-68
2023/01/30 06:41:48;;;;;;;33.85;30.45;;;;;;;3.45;100.00;100538.22;10106087;28;20053;-68
2023/01/30 06:46:44;;;;;;;33.28;30.10;;;;;;;3.43;100.00;100546.59;10109137;28;20874;-68
2023/01/30 06:51:41;;;;;;;32.17;29.48;;;;;;;3.49;100.00;100553.63;10105532;28;20078;-66
2023/01/30 06:56:37;;;;;;;32.17;29.00;;;;;;;3.49;100.00;100542.81;10108841;28;20042;-68
2023/01/30 07:01:34;;;;;;;31.48;29.08;;;;;;;3.49;100.00;100548.22;10103546;28;20074;-68
2023/01/30 07:06:31;;;;;;;30.80;28.25;;;;;;;3.49;100.00;100552.81;10097889;28;20054;-68
2023/01/30 07:11:27;;;;;;;31.08;28.42;;;;;;;3.46;100.00;100554.19;10104440;28;20070;-67
2023/01/30 07:16:28;;;;;;;32.58;29.13;;;;;;;3.44;100.00;100550.94;10090591;28;20127;-68
2023/01/30 07:21:26;;;;;;;29.92;26.60;;;;;;;3.57;100.00;100547.66;10067234;28;20043;-67
2023/01/30 07:26:23;;;;;;;27.30;23.45;;;;;;;3.56;100.00;100535.22;10059874;28;20050;-68
2023/01/30 07:31:20;;;;;;;33.85;26.45;;;;;;;3.51;100.00;100529.03;10062061;28;20071;-66
2023/01/30 07:36:16;;;;;;;30.08;20.98;;;;;;;3.63;100.00;100534.13;10060223;28;20497;-68
2023/01/30 07:41:13;;;;;;;29.98;23.45;;;;;;;3.53;100.00;100530.38;10064923;28;20071;-68
2023/01/30 07:46:09;;;;;;;28.83;19.05;;;;;;;3.59;100.00;100526.56;10054312;28;20063;-68
2023/01/30 07:51:05;;;;;;;25.35;22.63;;;;;;;3.65;100.00;100546.28;10054646;28;20062;-68
2023/01/30 07:56:09;;;;;;;36.20;20.77;;;;;;;3.79;100.00;100552.72;10066258;28;20417;-65
2023/01/30 08:01:05;;;;;;;27.42;17.52;;;;;;;3.83;100.00;100528.66;10057326;28;20047;-65
2023/01/30 08:06:02;;;;;;;32.78;18.55;;;;;;;4.02;100.00;100544.25;10069813;28;20517;-65
2023/01/30 08:10:58;;;;;;;33.15;16.15;;;;;;;4.00;100.00;100544.53;10069815;28;20138;-65
2023/01/30 08:15:59;;;;;;;34.60;17.95;;;;;;;3.97;100.00;100537.78;10070517;28;20054;-66
2023/01/30 08:21:04;;;;;;;35.80;14.13;;;;;;;3.98;100.00;100509.63;10072870;28;20043;-66
2023/01/30 08:26:03;;;;;;;36.25;15.18;;;;;;;3.96;100.00;100541.53;10061027;28;20776;-66
2023/01/30 08:30:59;;;;;;;37.83;17.20;;;;;;;3.85;100.00;100539.97;10073748;28;20154;-66
2023/01/30 08:35:56;;;;;;;43.60;12.98;;;;;;;4.06;100.00;100539.88;10068775;28;20049;-66
2023/01/30 08:40:52;;;;;;;38.28;12.30;;;;;;;4.16;100.00;100523.63;10066980;28;20063;-66
2023/01/30 08:45:52;;;;;;;42.00;13.63;;;;;;;4.21;100.00;100520.88;10069063;28;20054;-66
2023/01/30 08:50:52;;;;;;;37.20;12.02;;;;;;;4.26;100.00;100526.25;10108014;28;20043;-66
2023/01/30 08:55:52;;;;;;;23.80;13.45;;;;;;;4.30;100.00;100535.44;10106553;28;20078;-66
2023/01/30 09:00:49;;;;;;;35.08;11.43;;;;;;;4.37;100.00;100530.50;10108096;28;20186;-66
2023/01/30 09:05:46;;;;;;;41.55;12.38;;;;;;;4.57;100.00;100528.75;10109896;28;20397;-66
2023/01/30 09:10:42;;;;;;;42.03;14.10;;;;;;;4.68;100.00;100532.19;10108038;28;20078;-66
2023/01/30 09:15:43;;;;;;;36.95;11.25;;;;;;;4.64;100.00;100512.97;10109468;28;20074;-66
2023/01/30 09:20:39;;;;;;;25.00;10.82;;;;;;;4.59;100.00;100515.72;10107796;28;20065;-66
2023/01/30 09:25:36;;;;;;;30.98;11.52;;;;;;;4.67;100.00;100523.25;10112851;28;20046;-66
2023/01/30 09:30:33;;;;;;;31.35;11.38;;;;;;;4.70;100.00;100517.28;10106508;28;20102;-66
2023/01/30 09:35:29;;;;;;;32.53;9.75;;;;;;;4.69;100.00;100490.47;10066364;28;20051;-66
2023/01/30 09:40:30;;;;;;;36.13;10.60;;;;;;;4.71;100.00;100491.00;10066014;28;20414;-66
2023/01/30 09:45:58;;;;;;;33.00;10.82;;;;;;;4.91;100.00;100485.41;10070687;28;20073;-66
2023/01/30 09:51:16;;;;;;;41.78;11.75;;;;;;;5.01;100.00;100489.91;10066333;28;20044;-66
2023/01/30 09:56:13;;;;;;;36.70;10.75;;;;;;;5.06;100.00;100484.44;10079160;28;20516;-66
2023/01/30 10:01:19;;;;;;;24.40;11.55;;;;;;;4.76;100.00;100486.34;10111447;28;20567;-66
2023/01/30 10:06:17;;;;;;;33.75;13.38;;;;;;;4.40;100.00;100519.09;10107425;28;20109;-66
2023/01/30 10:11:39;;;;;;;22.13;12.90;;;;;;;3.88;100.00;100528.63;10108644;28;20647;-66
2023/01/30 10:16:38;;;;;;;38.23;17.23;;;;;;;3.64;100.00;100511.41;10099888;28;20130;-66
2023/01/30 10:21:49;;;;;;;27.58;17.90;;;;;;;3.48;100.00;100514.19;10111747;28;20073;-66
2023/01/30 10:26:46;;;;;;;27.55;17.15;;;;;;;3.28;100.00;100514.22;10107169;28;20078;-67
2023/01/30 10:31:48;;;;;;;21.92;15.82;;;;;;;3.22;100.00;100489.09;10104201;28;20547;-67
2023/01/30 10:36:55;;;;;;;21.35;16.63;;;;;;;3.16;100.00;100474.00;10096761;28;20042;-67
2023/01/30 10:42:07;;;;;;;19.27;16.08;;;;;;;3.42;100.00;100477.44;10106219;28;20054;-67
2023/01/30 10:47:36;;;;;;;18.50;16.23;;;;;;;3.90;100.00;100469.66;10100326;28;20039;-67
2023/01/30 10:53:26;;;;;;;18.63;13.35;;;;;;;4.13;100.00;100459.22;10103838;28;20058;-67
2023/01/30 10:58:37;;;;;;;32.15;17.48;;;;;;;3.91;100.00;100468.53;10103909;28;20090;-66
2023/01/30 11:03:40;;;;;;;21.73;13.73;;;;;;;3.81;100.00;100484.84;10125506;28;20572;-67
2023/01/30 11:08:36;;;;;;;19.73;15.70;;;;;;;3.53;100.00;100565.53;10103658;28;20043;-67
2023/01/30 11:13:33;;;;;;;16.55;15.18;;;;;;;3.10;100.00;100543.41;10104311;28;20149;-67
2023/01/30 11:18:30;;;;;;;15.02;13.88;;;;;;;2.83;100.00;100532.09;10104380;28;20070;-67
2023/01/30 11:23:46;;;;;;;16.50;14.57;;;;;;;2.85;100.00;100546.13;10109125;28;20046;-67
2023/01/30 11:28:45;;;;;;;16.15;14.85;;;;;;;2.96;100.00;100550.47;10105930;28;20078;-67
2023/01/30 11:33:44;;;;;;;16.67;15.18;;;;;;;2.98;100.00;100569.91;10106379;28;20066;-67
2023/01/30 11:38:55;;;;;;;15.57;14.07;;;;;;;3.01;100.00;100536.94;10110414;28;20490;-67
2023/01/30 11:44:02;;;;;;;18.15;16.23;;;;;;;3.13;100.00;100545.59;10116607;28;20070;-66
2023/01/30 11:49:02;;;;;;;22.20;16.70;;;;;;;3.39;100.00;100537.44;10115855;28;20051;-66
2023/01/30 11:54:28;;;;;;;17.52;15.75;;;;;;;3.71;100.00;100522.72;10072711;28;20047;-66
2023/01/30 11:59:37;;;;;;;15.65;11.07;;;;;;;3.98;100.00;100517.75;10074453;28;20528;-66
2023/01/30 12:04:34;;;;;;;16.13;12.93;;;;;;;3.95;100.00;100496.66;10068935;28;20552;-66
2023/01/30 12:09:36;;;;;;;14.32;12.88;;;;;;;4.15;100.00;100473.25;10075367;28;20053;-66
2023/01/30 12:14:41;;;;;;;17.73;10.70;;;;;;;4.41;100.00;100472.00;10070736;28;20074;-66
2023/01/30 12:20:11;;;;;;;18.38;9.95;;;;;;;4.73;100.00;100457.09;10066051;28;20043;-65
2023/01/30 12:25:40;;;;;;;21.67;15.02;;;;;;;4.37;100.00;100478.28;10065280;28;20156;-66
2023/01/30 12:30:46;;;;;;;17.42;15.38;;;;;;;3.99;100.00;100449.03;10072710;28;20067;-66
2023/01/30 12:35:55;;;;;;;19.48;15.98;;;;;;;3.71;100.00;100517.31;10075990;28;20071;-66
2023/01/30 12:41:05;;;;;;;17.83;16.13;;;;;;;3.22;100.00;100528.81;10081151;28;20496;-66
2023/01/30 12:46:06;;;;;;;19.10;16.98;;;;;;;3.38;100.00;100503.38;10113319;28;20125;-66
2023/01/30 12:51:11;;;;;;;19.50;17.27;;;;;;;3.70;100.00;100532.75;10108356;28;20051;-66
2023/01/30 12:56:41;;;;;;;20.00;17.05;;;;;;;4.10;100.00;100530.13;10103000;28;20054;-66
2023/01/30 13:02:14;;;;;;;19.25;10.52;;;;;;;4.76;100.00;100535.09;10109759;28;20442;-66
2023/01/30 13:07:32;;;;;;;20.73;14.03;;;;;;;4.87;100.00;100516.03;10110656;28;20089;-66
2023/01/30 13:13:02;;;;;;;34.20;13.07;;;;;;;4.61;100.00;100497.31;10107685;28;20142;-66
2023/01/30 13:18:15;;;;;;;31.63;15.63;;;;;;;4.50;100.00;100493.06;10111366;28;20043;-66
2023/01/30 13:23:24;;;;;;;32.42;16.38;;;;;;;4.48;100.00;100504.19;10110412;28;20496;-67
2023/01/30 13:28:27;;;;;;;19.17;12.45;;;;;;;4.62;100.00;100512.47;10105391;28;20046;-66
2023/01/30 13:33:38;;;;;;;41.92;11.88;;;;;;;4.74;100.00;100512.09;10102113;28;20080;-66
2023/01/30 13:38:39;;;;;;;38.10;11.57;;;;;;;4.65;100.00;100509.19;10111252;28;20130;-66
2023/01/30 13:43:41;;;;;;;25.45;13.95;;;;;;;4.41;100.00;100536.97;10109661;28;20051;-68
2023/01/30 13:49:02;;;;;;;40.97;16.95;;;;;;;4.28;100.00;100559.25;10106610;28;20135;-68
2023/01/30 13:54:10;;;;;;;27.98;15.93;;;;;;;3.84;100.00;100616.81;10112394;28;20077;-66
2023/01/30 13:59:33;;;;;;;31.60;17.40;;;;;;;3.74;100.00;100597.91;10105946;28;20489;-67
2023/01/30 14:04:29;;;;;;;33.45;19.02;;;;;;;3.74;100.00;100587.09;10111557;28;20057;-67
2023/01/30 14:09:28;;;;;;;39.97;21.67;;;;;;;3.89;100.00;100615.97;10110522;28;20149;-67
2023/01/30 14:14:28;;;;;;;38.78;19.48;;;;;;;4.21;100.00;100634.53;10106277;28;20081;-67
2023/01/30 14:19:39;;;;;;;36.22;16.23;;;;;;;4.38;100.00;100634.97;10109931;28;20415;-67
2023/01/30 14:24:35;;;;;;;33.35;14.02;;;;;;;4.56;100.00;100648.97;10106390;28;20513;-67
2023/01/30 14:29:53;;;;;;;27.80;16.25;;;;;;;4.58;100.00;100661.16;10104853;28;20074;-67
2023/01/30 14:35:09;;;;;;;29.75;18.08;;;;;;;4.64;100.00;100660.03;10108525;28;20524;-67
2023/01/30 14:40:36;;;;;;;30.42;17.02;;;;;;;4.63;100.00;100684.69;10105578;28;20501;-67
2023/01/30 14:45:49;;;;;;;38.08;18.33;;;;;;;4.69;100.00;100705.25;10105627;28;20077;-67
2023/01/30 14:50:46;;;;;;;29.50;14.48;;;;;;;4.80;100.00;100706.81;10107893;28;20106;-67
2023/01/30 14:55:43;;;;;;;33.33;13.57;;;;;;;4.77;100.00;100726.31;10106864;28;20070;-67
2023/01/30 15:00:39;;;;;;;29.63;14.32;;;;;;;4.81;100.00;100740.94;10107541;28;20043;-67
2023/01/30 15:05:42;;;;;;;34.00;13.07;;;;;;;4.88;100.00;100745.25;10110229;28;20047;-67
2023/01/30 15:11:04;;;;;;;29.67;12.65;;;;;;;4.80;100.00;100771.84;10110988;28;20057;-67
2023/01/30 15:16:03;;;;;;;30.30;10.98;;;;;;;4.85;100.00;100752.03;10109154;28;20043;-66
2023/01/30 15:21:22;;;;;;;30.20;10.88;;;;;;;4.90;100.00;100780.97;10103837;28;20043;-67
2023/01/30 15:26:57;;;;;;;28.40;10.95;;;;;;;4.83;100.00;100814.63;10070492;28;20075;-67
2023/01/30 15:31:58;;;;;;;30.58;11.07;;;;;;;4.78;100.00;100817.34;10071943;28;20142;-66
2023/01/30 15:36:54;;;;;;;21.85;9.13;;;;;;;4.88;100.00;100853.63;10068039;28;20089;-66
2023/01/30 15:41:55;;;;;;;28.65;12.05;;;;;;;4.83;100.00;100866.09;10078336;28;20067;-66
2023/01/30 15:47:10;;;;;;;32.45;11.25;;;;;;;4.83;100.00;100871.50;10072551;28;20059;-67
2023/01/30 15:52:13;;;;;;;28.67;10.15;;;;;;;4.84;100.00;100875.84;10073233;28;20151;-66
2023/01/30 15:57:12;;;;;;;;;;;;;;;4.87;100.00;100906.19;10071772;28;20078;-66
2023/01/30 16:02:15;;;;;;;36.33;10.63;;;;;;;4.79;100.00;100921.09;10076550;28;20012;-65
2023/01/30 16:07:21;;;;;;;37.25;11.48;;;;;;;4.71;100.00;100930.59;10063699;28;20055;-66
2023/01/30 16:12:28;;;;;;;37.70;11.73;;;;;;;4.74;100.00;100940.88;10072256;28;20074;-65
2023/01/30 16:17:28;;;;;;;26.40;11.18;;;;;;;4.71;100.00;100951.44;10103780;28;20219;-65
2023/01/30 16:22:31;;;;;;;31.95;12.65;;;;;;;4.66;100.00;100949.53;10094097;28;20047;-65
2023/01/30 16:27:34;;;;;;;32.65;12.80;;;;;;;4.73;100.00;100988.00;10114617;28;20501;-65
2023/01/30 16:32:32;;;;;;;32.58;13.80;;;;;;;4.69;100.00;100981.53;10088793;28;20055;-65
2023/01/30 16:37:30;;;;;;;45.35;15.35;;;;;;;4.53;100.00;100982.63;10071048;28;20561;-65
2023/01/30 16:42:28;;;;;;;27.20;13.02;;;;;;;4.49;100.00;101008.59;10093540;28;20063;-65
2023/01/30 16:47:27;;;;;;;31.92;15.35;;;;;;;4.41;100.00;101018.88;10113855;28;20046;-66
2023/01/30 16:52:23;;;;;;;39.28;16.38;;;;;;;4.43;100.00;101024.84;10108770;28;20043;-66
2023/01/30 16:57:34;;;;;;;31.92;12.18;;;;;;;4.48;100.00;101048.41;10095382;28;20470;-67
2023/01/30 17:02:38;;;;;;;38.85;16.50;;;;;;;4.30;100.00;101071.38;10072621;28;20154;-65
2023/01/30 17:07:36;;;;;;;33.90;13.60;;;;;;;4.27;100.00;101081.91;10068787;28;20498;-65
2023/01/30 17:12:41;;;;;;;35.22;13.00;;;;;;;4.29;100.00;101096.81;10068972;28;20051;-66
2023/01/30 17:17:40;;;;;;;34.80;13.27;;;;;;;4.26;100.00;101113.59;10061148;28;20138;-65
2023/01/30 17:22:40;;;;;;;28.92;10.55;;;;;;;4.34;100.00;101118.50;10070135;28;20560;-65
2023/01/30 17:27:37;;;;;;;25.83;10.13;;;;;;;4.34;100.00;101126.63;10069160;28;20440;-64
2023/01/30 17:32:33;;;;;;;24.02;10.13;;;;;;;4.36;100.00;101140.72;10067571;28;20098;-65
2023/01/30 17:37:29;;;;;;;24.77;11.88;;;;;;;4.32;100.00;101142.31;10066361;28;20145;-65
2023/01/30 17:42:26;;;;;;;23.42;10.70;;;;;;;4.28;100.00;101148.53;10070169;28;20110;-66
2023/01/30 17:47:22;;;;;;;39.97;12.38;;;;;;;4.22;100.00;101153.94;10069179;28;20050;-65
2023/01/30 17:52:20;;;;;;;23.45;10.52;;;;;;;4.21;100.00;101159.59;10066467;28;20051;-66
2023/01/30 17:57:16;;;;;;;16.08;10.68;;;;;;;4.04;100.00;101165.22;10065120;28;20058;-66
2023/01/30 18:02:13;;;;;;;22.85;10.57;;;;;;;3.97;100.00;101164.63;10065205;28;20043;-65
2023/01/30 18:07:13;;;;;;;17.73;9.73;;;;;;;4.00;100.00;101175.72;10062082;28;20074;-66
2023/01/30 18:12:09;;;;;;;24.73;9.40;;;;;;;4.04;100.00;101180.59;10064853;28;20109;-66
2023/01/30 18:17:05;;;;;;;16.27;7.47;;;;;;;4.04;100.00;101180.59;10095943;28;20071;-66
2023/01/30 18:22:02;;;;;;;19.20;8.68;;;;;;;3.91;100.00;101187.31;10066415;28;20106;-66
2023/01/30 18:26:58;;;;;;;24.60;10.30;;;;;;;3.85;100.00;101191.84;10067731;28;20054;-66
2023/01/30 18:32:03;;;;;;;24.90;10.35;;;;;;;3.79;100.00;101196.44;10067116;28;20057;-66
2023/01/30 18:37:00;;;;;;;28.10;9.75;;;;;;;3.71;100.00;101215.88;10084448;28;20046;-66
2023/01/30 18:41:56;;;;;;;30.45;10.35;;;;;;;3.68;100.00;101231.78;10103991;28;20043;-66
2023/01/30 18:46:52;;;;;;;33.65;11.45;;;;;;;3.55;100.00;101233.88;10087558;28;20118;-66
2023/01/30 18:51:49;;;;;;;28.50;11.80;;;;;;;3.46;100.00;101235.41;10067123;28;21275;-66
2023/01/30 18:56:45;;;;;;;26.60;11.27;;;;;;;3.50;100.00;101244.59;10057760;28;20059;-66
2023/01/30 19:01:42;;;;;;;35.33;12.25;;;;;;;3.40;100.00;101271.56;10059617;28;20157;-66
2023/01/30 19:06:42;;;;;;;40.78;11.18;;;;;;;3.60;100.00;101260.13;10067094;28;20614;-66
2023/01/30 19:16:53;;;;;;;32.33;10.50;;;;;;;3.46;100.00;101273.25;10065312;28;20146;-66
2023/01/30 19:21:51;;;;;;;18.88;8.98;;;;;;;3.46;100.00;101294.88;10063599;28;20055;-66
2023/01/30 19:26:47;;;;;;;25.55;9.35;;;;;;;3.42;100.00;101271.31;10063680;28;20095;-66
2023/01/30 19:31:45;;;;;;;24.67;8.68;;;;;;;3.37;100.00;101301.81;10062447;28;20050;-65
2023/01/30 19:36:42;;;;;;;24.73;8.70;;;;;;;3.34;100.00;101324.78;10062403;28;20046;-66
2023/01/30 19:41:39;;;;;;;47.10;12.40;;;;;;;3.17;100.00;101335.66;10059202;28;20502;-66
2023/01/30 19:46:35;;;;;;;22.17;10.57;;;;;;;3.06;100.00;101343.91;10053623;28;20050;-66
2023/01/30 19:51:33;;;;;;;25.83;10.65;;;;;;;3.14;100.00;101360.50;10066933;28;20505;-66
2023/01/30 19:56:30;;;;;;;23.23;11.30;;;;;;;3.20;100.00;101368.66;10066209;28;20066;-66
2023/01/30 20:01:31;;;;;;;25.60;11.73;;;;;;;3.14;100.00;101378.59;10073305;28;20063;-66
2023/01/30 20:06:30;;;;;;;30.83;12.02;;;;;;;3.10;100.00;101378.25;10070629;28;20553;-66
2023/01/30 20:11:28;;;;;;;21.85;9.80;;;;;;;3.07;100.00;101422.00;10071324;28;20133;-66
2023/01/30 20:16:26;;;;;;;36.95;12.77;;;;;;;3.05;100.00;101413.34;10070010;28;20043;-66
2023/01/30 20:21:23;;;;;;;27.52;12.52;;;;;;;2.91;100.00;101422.88;10069827;28;20040;-66
2023/01/30 20:26:22;;;;;;;22.13;9.82;;;;;;;2.97;100.00;101421.88;10072361;28;20051;-66
2023/01/30 20:31:21;;;;;;;28.90;10.15;;;;;;;2.93;100.00;101428.84;10069921;28;20071;-66
2023/01/30 20:36:19;;;;;;;25.92;11.05;;;;;;;2.88;100.00;101428.78;10072058;28;20070;-66
2023/01/30 20:41:20;;;;;;;20.48;8.45;;;;;;;2.99;100.00;101446.75;10072207;28;20051;-66
2023/01/30 20:46:19;;;;;;;29.80;9.93;;;;;;;2.93;100.00;101447.75;10067128;28;20055;-66
2023/01/30 20:51:23;;;;;;;27.35;11.30;;;;;;;2.82;100.00;101456.78;10070134;28;20055;-66
2023/01/30 20:56:20;;;;;;;21.88;8.18;;;;;;;3.11;100.00;101463.69;10069026;28;20123;-66
2023/01/30 21:01:20;;;;;;;17.42;7.78;;;;;;;3.23;100.00;101470.88;10068744;28;20106;-66
2023/01/30 21:06:18;;;;;;;24.33;7.80;;;;;;;3.28;100.00;101481.72;10070557;28;20080;-66
2023/01/30 21:11:35;;;;;;;22.67;7.93;;;;;;;3.30;100.00;101460.69;10062271;28;20490;-66
2023/01/30 21:16:32;;;;;;;29.98;9.45;;;;;;;3.14;100.00;101487.50;10062355;28;20508;-67
2023/01/30 21:21:35;;;;;;;19.48;7.97;;;;;;;3.03;100.00;101464.09;10070253;28;20461;-67
2023/01/30 21:26:34;;;;;;;22.33;7.45;;;;;;;2.95;100.00;101478.03;10066701;28;20063;-67
2023/01/30 21:31:33;;;;;;;21.73;8.35;;;;;;;2.83;100.00;101485.41;10071128;28;20146;-67
2023/01/30 21:36:29;;;;;;;25.05;9.98;;;;;;;2.81;100.00;101487.53;10068519;28;20047;-67
2023/01/30 21:46:47;;;;;;;15.57;8.93;;;;;;;2.66;100.00;101501.63;10066606;28;20058;-67
2023/01/30 21:51:45;;;;;;;19.83;9.60;;;;;;;2.59;100.00;101515.28;10072883;28;20138;-67
2023/01/30 21:56:42;;;;;;;20.75;9.48;;;;;;;2.65;100.00;101525.13;10061678;28;20051;-67
2023/01/30 22:01:40;;;;;;;20.52;8.93;;;;;;;2.63;100.00;101524.53;10068722;28;20438;-67
2023/01/30 22:06:37;;;;;;;20.30;9.30;;;;;;;2.69;100.00;101534.38;10072690;28;20075;-67
2023/01/30 22:11:35;;;;;;;18.48;7.50;;;;;;;2.91;100.00;101537.13;10064688;28;20047;-67
2023/01/30 22:16:32;;;;;;;17.15;7.05;;;;;;;3.02;100.00;101543.53;10062617;28;20825;-67
2023/01/30 22:21:33;;;;;;;21.13;8.18;;;;;;;3.02;100.00;101551.63;10066723;28;20043;-67
2023/01/30 22:26:30;;;;;;;18.48;7.78;;;;;;;2.99;100.00;101549.41;10064062;28;20141;-67
2023/01/30 22:31:33;;;;;;;18.13;7.00;;;;;;;3.01;100.00;101558.09;10063439;28;20078;-67
2023/01/30 22:36:32;;;;;;;18.63;6.00;;;;;;;3.01;100.00;101560.78;10056791;28;20513;-67
2023/01/30 22:41:34;;;;;;;25.42;7.00;;;;;;;3.05;100.00;101561.94;10070071;28;20053;-67
2023/01/30 22:46:33;;;;;;;13.25;6.55;;;;;;;3.01;100.00;101579.69;10066933;28;20130;-67
2023/01/30 22:51:32;;;;;;;15.57;6.47;;;;;;;2.78;100.00;101580.66;10069318;28;20506;-67
2023/01/30 22:56:34;;;;;;;14.48;6.68;;;;;;;2.71;100.00;101599.72;10060644;28;20047;-67
2023/01/30 23:01:32;;;;;;;;;;;;;;;2.74;100.00;101591.16;10062365;28;20063;-67